Time;durP1;ratioP1;P1;durP2;ratioP2;P2;SDS_P1;SDS_P2;PMS_P1;PMS_P2;Temp;Humidity;BMP_temperature;BMP_pressure;BME280_temperature;BME280_humidity;BME280_pressure;Samples;Min_cycle;Max_cycle;Signal;HPM_P1;HPM_P2
2022/05/17 00:00:49;;;;;;;1.95;0.80;;;19.00;38.20;;;;;;6194927;23;20140;-87
2022/05/17 00:03:15;;;;;;;0.95;0.75;;;19.00;38.20;;;;;;6170888;23;20148;-87
2022/05/17 00:05:41;;;;;;;1.73;0.82;;;18.90;38.10;;;;;;6170447;23;20581;-87
2022/05/17 00:08:08;;;;;;;1.33;0.85;;;19.00;38.20;;;;;;6195039;23;20133;-87
2022/05/17 00:10:33;;;;;;;0.80;0.73;;;19.00;38.20;;;;;;6194701;23;20134;-87
2022/05/17 00:13:01;;;;;;;1.10;0.70;;;19.00;38.20;;;;;;6219774;23;20244;-87
2022/05/17 00:15:28;;;;;;;0.80;0.60;;;19.00;38.20;;;;;;6196128;23;20133;-87
2022/05/17 00:17:53;;;;;;;1.92;0.80;;;18.90;38.20;;;;;;6219787;23;20141;-87
2022/05/17 00:20:19;;;;;;;0.73;0.70;;;19.00;38.30;;;;;;6219742;23;20126;-87
2022/05/17 00:22:45;;;;;;;1.08;0.70;;;18.90;38.20;;;;;;6195193;23;20554;-87
2022/05/17 00:25:13;;;;;;;0.70;0.70;;;19.00;38.30;;;;;;6219757;23;20248;-87
2022/05/17 00:27:39;;;;;;;0.88;0.82;;;18.90;38.30;;;;;;6169842;23;20153;-87
2022/05/17 00:30:07;;;;;;;1.05;0.77;;;18.90;38.30;;;;;;6219676;23;20633;-87
2022/05/17 00:32:32;;;;;;;1.20;0.75;;;18.90;38.30;;;;;;6194765;23;20608;-87
2022/05/17 00:34:58;;;;;;;0.77;0.70;;;18.90;38.30;;;;;;6219936;23;20129;-86
2022/05/17 00:37:23;;;;;;;1.40;0.90;;;18.90;38.40;;;;;;6194504;23;20146;-87
2022/05/17 00:39:49;;;;;;;0.80;0.80;;;18.90;38.40;;;;;;6169663;23;20150;-87
2022/05/17 00:42:19;;;;;;;0.80;0.73;;;18.90;38.40;;;;;;6195021;23;20141;-87
2022/05/17 00:44:48;;;;;;;0.90;0.80;;;18.90;38.30;;;;;;6169190;23;20154;-87
2022/05/17 00:47:24;;;;;;;1.10;0.85;;;18.90;38.30;;;;;;6144533;23;20157;-87
2022/05/17 00:49:59;;;;;;;0.73;0.73;;;18.80;38.40;;;;;;6111373;23;20162;-87
2022/05/17 00:52:34;;;;;;;1.45;0.60;;;18.90;38.50;;;;;;6135109;23;20186;-87
2022/05/17 00:55:09;;;;;;;1.08;0.73;;;18.90;38.50;;;;;;6159739;23;20233;-87
2022/05/17 00:57:47;;;;;;;0.73;0.60;;;18.90;38.50;;;;;;6134808;23;20225;-87
2022/05/17 01:00:19;;;;;;;1.00;0.80;;;18.90;38.50;;;;;;6134735;23;20233;-87
2022/05/17 01:02:53;;;;;;;0.60;0.60;;;18.90;38.50;;;;;;6159096;23;20186;-87
2022/05/17 01:05:19;;;;;;;1.88;0.90;;;18.90;38.50;;;;;;6158759;23;20590;-87
2022/05/17 01:07:49;;;;;;;0.80;0.70;;;18.90;38.60;;;;;;6184357;23;20143;-87
2022/05/17 01:10:14;;;;;;;1.50;0.80;;;18.90;38.60;;;;;;6184220;23;20139;-87
2022/05/17 01:12:40;;;;;;;0.82;0.63;;;18.80;38.60;;;;;;6159369;23;20201;-87
2022/05/17 01:15:07;;;;;;;1.13;0.65;;;18.80;38.60;;;;;;6184662;23;20173;-89
2022/05/17 01:17:34;;;;;;;1.23;0.70;;;18.90;38.60;;;;;;6184474;23;20563;-87
2022/05/17 01:20:01;;;;;;;0.82;0.80;;;18.80;38.60;;;;;;6184775;23;20201;-87
2022/05/17 01:22:26;;;;;;;1.10;0.90;;;18.80;38.70;;;;;;6184043;23;20159;-87
2022/05/17 01:24:52;;;;;;;1.00;0.88;;;18.70;38.60;;;;;;6159972;23;20226;-87
2022/05/17 01:27:47;;;;;;;1.52;0.60;;;18.80;38.70;;;;;;6184325;23;20134;-87
2022/05/17 01:30:15;;;;;;;1.48;0.90;;;18.80;38.70;;;;;;6184331;23;20142;-87
2022/05/17 01:32:41;;;;;;;1.33;0.80;;;18.80;38.70;;;;;;6184435;23;20641;-87
2022/05/17 01:35:08;;;;;;;1.73;0.75;;;18.80;38.70;;;;;;6184954;23;20135;-87
2022/05/17 01:37:34;;;;;;;1.45;0.70;;;18.80;38.70;;;;;;6184131;23;20175;-87
2022/05/17 01:40:01;;;;;;;2.10;0.75;;;18.80;38.70;;;;;;6184566;23;20135;-87
2022/05/17 01:42:31;;;;;;;1.02;0.70;;;18.80;38.70;;;;;;6158740;23;20243;-87
2022/05/17 01:44:57;;;;;;;0.80;0.80;;;18.80;38.80;;;;;;6158655;23;20181;-87
2022/05/17 01:47:22;;;;;;;1.20;0.90;;;18.80;38.80;;;;;;6160066;23;20565;-87
2022/05/17 01:49:52;;;;;;;1.08;0.93;;;18.80;38.80;;;;;;6219309;23;20191;-87
2022/05/17 01:52:18;;;;;;;1.42;0.60;;;18.80;38.80;;;;;;6168825;23;20184;-87
2022/05/17 01:54:45;;;;;;;0.88;0.75;;;18.80;38.90;;;;;;6143491;23;20149;-87
2022/05/17 01:57:12;;;;;;;0.63;0.63;;;18.80;38.80;;;;;;6143565;23;20154;-87
2022/05/17 01:59:39;;;;;;;1.30;0.85;;;18.80;38.90;;;;;;6168571;23;20472;-87
2022/05/17 02:02:06;;;;;;;0.93;0.82;;;18.80;38.90;;;;;;6144054;23;20157;-87
2022/05/17 02:04:33;;;;;;;1.52;0.90;;;18.80;38.90;;;;;;6194576;23;20213;-87
2022/05/17 02:06:59;;;;;;;0.80;0.80;;;18.70;38.90;;;;;;6196260;23;20141;-87
2022/05/17 02:09:25;;;;;;;2.08;0.85;;;18.80;39.00;;;;;;6196100;23;20138;-87
2022/05/17 02:11:50;;;;;;;0.73;0.70;;;18.80;39.00;;;;;;6247724;23;20168;-87
2022/05/17 02:14:17;;;;;;;2.15;0.85;;;18.70;38.90;;;;;;6195902;23;20165;-86
2022/05/17 02:16:43;;;;;;;0.80;0.73;;;18.70;38.90;;;;;;6196618;23;20130;-88
2022/05/17 02:19:09;;;;;;;1.35;0.70;;;18.80;39.00;;;;;;6195847;23;20195;-87
2022/05/17 02:21:35;;;;;;;0.90;0.70;;;18.70;39.00;;;;;;6170958;23;20228;-88
2022/05/17 02:24:06;;;;;;;0.82;0.60;;;18.70;39.00;;;;;;6171039;23;20145;-87
2022/05/17 02:26:33;;;;;;;1.15;0.70;;;18.70;39.00;;;;;;6121558;23;20164;-87
2022/05/17 02:29:00;;;;;;;0.85;0.70;;;18.70;39.00;;;;;;6145735;23;20160;-86
2022/05/17 02:31:26;;;;;;;0.70;0.70;;;18.70;39.10;;;;;;6121083;23;20188;-87
2022/05/17 02:33:56;;;;;;;1.02;0.77;;;18.70;39.10;;;;;;6221712;23;20236;-87
2022/05/17 02:36:23;;;;;;;0.60;0.60;;;18.70;39.10;;;;;;6170104;23;20145;-87
2022/05/17 02:38:49;;;;;;;1.17;0.70;;;18.70;39.10;;;;;;6121363;23;20157;-86
2022/05/17 02:41:19;;;;;;;0.70;0.70;;;18.70;39.10;;;;;;6195661;23;20188;-87
2022/05/17 02:43:46;;;;;;;1.00;0.88;;;18.70;39.10;;;;;;6147943;23;20232;-87
2022/05/17 02:46:12;;;;;;;1.33;0.80;;;18.60;39.80;;;;;;6121238;23;20271;-86
2022/05/17 02:48:38;;;;;;;1.98;0.88;;;18.70;39.10;;;;;;6165513;23;20205;-87
2022/05/17 02:51:15;;;;;;;1.02;0.70;;;18.70;39.10;;;;;;6166856;23;20157;-87
2022/05/17 02:53:42;;;;;;;0.70;0.60;;;18.70;39.10;;;;;;6116907;23;20154;-87
2022/05/17 02:56:08;;;;;;;0.90;0.80;;;18.70;39.20;;;;;;6140375;23;20169;-87
2022/05/17 02:58:33;;;;;;;1.10;0.70;;;18.70;39.20;;;;;;6191394;23;20161;-87
2022/05/17 03:00:59;;;;;;;0.60;0.60;;;18.70;39.20;;;;;;6190650;23;20469;-86
2022/05/17 03:03:25;;;;;;;0.93;0.70;;;18.70;39.20;;;;;;6215364;23;20137;-87
2022/05/17 03:05:51;;;;;;;1.10;0.90;;;18.70;39.10;;;;;;6215539;23;20137;-87
2022/05/17 03:08:18;;;;;;;0.90;0.73;;;18.70;39.20;;;;;;6217206;23;20134;-87
2022/05/17 03:10:45;;;;;;;0.70;0.60;;;18.70;39.20;;;;;;6164296;23;20236;-87
2022/05/17 03:13:15;;;;;;;0.82;0.80;;;18.70;39.10;;;;;;6139847;23;20189;-88
2022/05/17 03:15:42;;;;;;;1.13;0.60;;;18.70;39.20;;;;;;6140277;23;20188;-87
2022/05/17 03:18:09;;;;;;;1.63;0.73;;;18.70;39.20;;;;;;6165058;23;20158;-88
2022/05/17 03:20:36;;;;;;;0.85;0.65;;;18.70;39.20;;;;;;6115636;23;20165;-87
2022/05/17 03:23:03;;;;;;;1.58;0.82;;;18.70;39.20;;;;;;6190392;23;20134;-87
2022/05/17 03:25:32;;;;;;;1.33;0.75;;;18.70;39.20;;;;;;6164362;23;20150;-87
2022/05/17 03:27:58;;;;;;;0.68;0.68;;;18.70;39.20;;;;;;6164738;23;20146;-86
2022/05/17 03:30:25;;;;;;;1.08;0.90;;;18.70;39.20;;;;;;6190343;23;20141;-88
2022/05/17 03:32:51;;;;;;;0.90;0.70;;;18.70;39.20;;;;;;6165279;23;20174;-87
2022/05/17 03:35:17;;;;;;;1.38;0.70;;;18.70;39.30;;;;;;6216711;23;20135;-87
2022/05/17 03:37:42;;;;;;;0.65;0.60;;;18.70;39.30;;;;;;6165417;23;20142;-87
2022/05/17 03:40:09;;;;;;;0.80;0.80;;;18.60;39.30;;;;;;6216773;23;20135;-87
2022/05/17 03:42:35;;;;;;;1.15;0.90;;;18.70;39.40;;;;;;6190115;23;20276;-87
2022/05/17 03:45:02;;;;;;;0.98;0.73;;;18.70;39.30;;;;;;6214945;23;20142;-86
2022/05/17 03:47:27;;;;;;;1.88;0.70;;;18.70;39.30;;;;;;6191581;23;20165;-87
2022/05/17 03:49:53;;;;;;;1.00;0.65;;;18.70;39.20;;;;;;6195292;23;20460;-87
2022/05/17 03:52:24;;;;;;;1.48;0.88;;;18.70;39.20;;;;;;6195284;23;20176;-87
2022/05/17 03:54:56;;;;;;;0.70;0.70;;;18.80;39.10;;;;;;6171634;23;20153;-87
2022/05/17 03:57:26;;;;;;;1.63;0.63;;;18.80;39.10;;;;;;6120781;23;20145;-86
2022/05/17 03:59:54;;;;;;;1.27;0.80;;;18.70;39.10;;;;;;6145330;23;20149;-87
2022/05/17 04:02:22;;;;;;;0.82;0.80;;;18.70;39.00;;;;;;6195168;23;20142;-86
2022/05/17 04:04:50;;;;;;;1.02;0.77;;;18.90;39.10;;;;;;6169684;23;20157;-87
2022/05/17 04:07:17;;;;;;;0.70;0.70;;;18.80;39.10;;;;;;6170840;23;20153;-88
2022/05/17 04:09:42;;;;;;;1.70;0.90;;;18.80;39.00;;;;;;6170105;23;20642;-87
2022/05/17 04:12:09;;;;;;;1.15;0.70;;;18.80;38.90;;;;;;6169456;23;20177;-87
2022/05/17 04:14:34;;;;;;;1.17;0.82;;;18.70;38.90;;;;;;6195193;23;20187;-87
2022/05/17 04:17:00;;;;;;;1.05;0.80;;;18.90;39.00;;;;;;6169947;23;20220;-87
2022/05/17 04:19:25;;;;;;;0.60;0.60;;;18.80;39.00;;;;;;6169867;23;20142;-87
2022/05/17 04:21:51;;;;;;;0.70;0.70;;;18.80;38.90;;;;;;6194592;23;20210;-87
2022/05/17 04:24:17;;;;;;;1.13;0.60;;;18.90;39.00;;;;;;6169859;23;20524;-88
2022/05/17 04:26:42;;;;;;;0.90;0.80;;;18.90;38.90;;;;;;6169864;23;20145;-87
2022/05/17 04:29:09;;;;;;;0.90;0.75;;;18.90;38.90;;;;;;6169966;23;20196;-87
2022/05/17 04:31:36;;;;;;;1.48;0.60;;;18.90;38.80;;;;;;6169959;23;20177;-87
2022/05/17 04:34:05;;;;;;;0.98;0.75;;;18.90;38.90;;;;;;6169632;23;20142;-87
2022/05/17 04:36:34;;;;;;;1.00;0.90;;;19.00;38.90;;;;;;6121308;23;20153;-88
2022/05/17 04:39:00;;;;;;;0.95;0.88;;;19.00;38.90;;;;;;6168520;23;20156;-88
2022/05/17 04:41:26;;;;;;;2.40;0.70;;;19.00;38.90;;;;;;6169739;23;20647;-87
2022/05/17 04:43:52;;;;;;;0.52;0.50;;;19.00;38.90;;;;;;6246448;23;20137;-87
2022/05/17 04:46:17;;;;;;;0.57;0.57;;;19.00;38.90;;;;;;6193815;23;20133;-87
2022/05/17 04:48:43;;;;;;;0.80;0.70;;;19.00;38.80;;;;;;6194481;23;20224;-87
2022/05/17 04:51:10;;;;;;;1.45;0.70;;;19.00;38.70;;;;;;6219978;23;20172;-87
2022/05/17 04:53:38;;;;;;;0.95;0.70;;;19.10;38.70;;;;;;6194586;23;20133;-87
2022/05/17 04:56:06;;;;;;;0.60;0.60;;;19.00;38.70;;;;;;6144800;23;20153;-87
2022/05/17 04:58:34;;;;;;;0.95;0.80;;;19.00;38.80;;;;;;6168622;23;20175;-87
2022/05/17 05:01:02;;;;;;;0.98;0.70;;;19.00;38.80;;;;;;6168915;23;20157;-88
2022/05/17 05:03:29;;;;;;;0.70;0.70;;;19.10;38.60;;;;;;6120516;23;20636;-88
2022/05/17 05:05:59;;;;;;;1.35;0.80;;;19.00;38.80;;;;;;6143440;23;20175;-87
2022/05/17 05:08:29;;;;;;;0.65;0.65;;;19.00;38.80;;;;;;6142972;23;20145;-88
2022/05/17 05:10:56;;;;;;;0.73;0.55;;;19.00;38.90;;;;;;6168777;23;20331;-87
2022/05/17 05:13:24;;;;;;;0.80;0.70;;;19.00;38.80;;;;;;6168772;23;20149;-88
2022/05/17 05:15:51;;;;;;;1.13;0.60;;;19.00;38.60;;;;;;6119822;23;20154;-87
2022/05/17 05:18:17;;;;;;;0.70;0.50;;;19.10;38.70;;;;;;6119760;23;20515;-87
2022/05/17 05:20:43;;;;;;;1.13;0.93;;;19.10;38.70;;;;;;6169745;23;20137;-87
2022/05/17 05:23:11;;;;;;;0.52;0.50;;;19.00;38.60;;;;;;6219423;23;20136;-87
2022/05/17 05:25:38;;;;;;;1.40;0.98;;;19.10;38.60;;;;;;6169400;23;20185;-88
2022/05/17 05:28:07;;;;;;;0.60;0.60;;;19.00;38.70;;;;;;6144006;23;20164;-87
2022/05/17 05:30:33;;;;;;;1.10;0.60;;;19.00;38.60;;;;;;6122061;23;20236;-88
2022/05/17 05:32:58;;;;;;;0.60;0.60;;;19.00;38.70;;;;;;6194119;23;20251;-87
2022/05/17 05:35:25;;;;;;;1.23;0.70;;;19.00;38.90;;;;;;6194440;23;20156;-87
2022/05/17 05:37:52;;;;;;;0.95;0.63;;;19.00;38.90;;;;;;6194834;23;20592;-87
2022/05/17 05:40:17;;;;;;;0.73;0.70;;;19.00;38.80;;;;;;6170216;23;20165;-89
2022/05/17 05:42:43;;;;;;;0.60;0.60;;;18.90;38.70;;;;;;6195111;23;20149;-87
2022/05/17 05:45:10;;;;;;;0.88;0.80;;;19.00;38.70;;;;;;6194494;23;20461;-88
2022/05/17 05:47:36;;;;;;;0.70;0.70;;;19.10;38.60;;;;;;6168012;23;20336;-88
2022/05/17 05:50:04;;;;;;;0.60;0.60;;;19.10;38.60;;;;;;6194413;23;20150;-88
2022/05/17 05:52:30;;;;;;;0.88;0.80;;;19.10;38.50;;;;;;6119926;23;20181;-88
2022/05/17 05:54:56;;;;;;;0.98;0.70;;;19.10;38.40;;;;;;6195917;23;20145;-88
2022/05/17 05:57:22;;;;;;;0.50;0.50;;;19.10;38.40;;;;;;6247836;23;20137;-87
2022/05/17 05:59:48;;;;;;;0.57;0.57;;;19.10;38.50;;;;;;6171366;23;20152;-88
2022/05/17 06:02:14;;;;;;;1.33;0.65;;;19.10;38.50;;;;;;6196058;23;20192;-88
2022/05/17 06:04:42;;;;;;;0.50;0.50;;;19.10;38.50;;;;;;6220957;23;20134;-88
2022/05/17 06:07:11;;;;;;;0.98;0.60;;;19.10;38.50;;;;;;6170349;23;20153;-88
2022/05/17 06:09:36;;;;;;;0.60;0.60;;;19.10;38.50;;;;;;6169457;23;20175;-88
2022/05/17 06:12:04;;;;;;;0.70;0.52;;;19.20;38.40;;;;;;6170690;23;20193;-88
2022/05/17 06:14:32;;;;;;;0.75;0.65;;;19.20;38.40;;;;;;6121377;23;20184;-88
2022/05/17 06:16:58;;;;;;;0.70;0.60;;;19.20;38.40;;;;;;6170159;23;20149;-89
2022/05/17 06:19:27;;;;;;;0.90;0.70;;;19.10;38.40;;;;;;6196671;23;20133;-89
2022/05/17 06:21:55;;;;;;;1.05;0.70;;;19.10;38.60;;;;;;6123018;23;20176;-88
2022/05/17 06:24:20;;;;;;;1.38;0.80;;;19.10;38.90;;;;;;6170044;23;20149;-85
2022/05/17 06:26:46;;;;;;;1.13;0.82;;;19.10;39.00;;;;;;6221267;23;20144;-87
2022/05/17 06:29:11;;;;;;;0.68;0.60;;;19.10;39.10;;;;;;6247390;23;20130;-85
2022/05/17 06:31:38;;;;;;;1.75;0.80;;;19.10;39.00;;;;;;6221384;23;20162;-85
2022/05/17 06:34:04;;;;;;;0.50;0.47;;;19.20;38.90;;;;;;6247342;23;20152;-87
2022/05/17 06:36:30;;;;;;;1.20;0.50;;;19.20;38.70;;;;;;6220751;23;20126;-86
2022/05/17 06:38:56;;;;;;;0.60;0.60;;;19.20;38.60;;;;;;6195750;23;20150;-85
2022/05/17 06:41:22;;;;;;;1.35;0.70;;;19.10;38.60;;;;;;6220539;23;20212;-87
2022/05/17 06:43:48;;;;;;;0.77;0.63;;;19.20;38.50;;;;;;6220641;23;20134;-86
2022/05/17 06:46:13;;;;;;;0.88;0.60;;;19.10;38.50;;;;;;6220429;23;20188;-88
2022/05/17 06:48:39;;;;;;;0.75;0.55;;;19.10;38.60;;;;;;6190107;23;20251;-86
2022/05/17 06:51:08;;;;;;;0.60;0.60;;;19.10;38.60;;;;;;6165595;23;20225;-90
2022/05/17 06:53:36;;;;;;;0.80;0.70;;;19.10;38.70;;;;;;6189993;23;20466;-89
2022/05/17 06:56:08;;;;;;;0.50;0.50;;;19.10;38.60;;;;;;6190649;23;20135;-88
2022/05/17 06:58:37;;;;;;;0.63;0.63;;;19.20;38.50;;;;;;6215885;23;20122;-89
2022/05/17 07:01:03;;;;;;;0.73;0.68;;;19.10;38.50;;;;;;6191439;23;20135;-88
2022/05/17 07:03:38;;;;;;;0.52;0.52;;;19.10;38.60;;;;;;6166493;23;20138;-89
2022/05/17 07:06:12;;;;;;;0.82;0.50;;;19.10;38.50;;;;;;6149574;23;20153;-89
2022/05/17 07:08:43;;;;;;;0.80;0.70;;;19.20;38.70;;;;;;6144412;23;20150;-88
2022/05/17 07:14:05;;;;;;;0.77;0.77;;;19.20;38.70;;;;;;6178253;23;20146;-89
2022/05/17 07:16:34;;;;;;;1.75;0.65;;;19.20;38.60;;;;;;6194555;23;20177;-90
2022/05/17 07:19:04;;;;;;;0.63;0.63;;;19.10;38.60;;;;;;6167122;23;20150;-88
2022/05/17 07:21:35;;;;;;;0.82;0.60;;;19.20;38.50;;;;;;6146341;23;20164;-89
2022/05/17 07:24:41;;;;;;;0.60;0.60;;;19.10;38.60;;;;;;6147460;23;20250;-91
2022/05/17 07:27:24;;;;;;;;;;;;;;;;;;;;;
2022/05/17 07:29:54;;;;;;;0.60;0.45;;;19.10;38.60;;;;;;6120850;23;20276;-88
2022/05/17 07:32:24;;;;;;;1.48;0.73;;;19.10;38.60;;;;;;6119806;23;20181;-89
2022/05/17 07:34:53;;;;;;;0.68;0.68;;;19.10;38.60;;;;;;6167508;23;20156;-89
2022/05/17 07:37:27;;;;;;;1.23;0.82;;;19.20;38.50;;;;;;6148098;23;20157;-90
2022/05/17 07:39:55;;;;;;;1.30;0.68;;;19.10;38.50;;;;;;6109023;23;20157;-89
2022/05/17 07:42:23;;;;;;;1.52;0.70;;;19.10;38.70;;;;;;6106556;23;20166;-90
2022/05/17 07:44:53;;;;;;;0.93;0.63;;;19.10;38.50;;;;;;6105596;23;20159;-88
2022/05/17 07:47:22;;;;;;;0.85;0.70;;;19.20;38.50;;;;;;6114960;23;20630;-89
2022/05/17 07:49:47;;;;;;;0.70;0.70;;;19.10;38.50;;;;;;6091249;23;20562;-88
2022/05/17 07:52:13;;;;;;;0.90;0.70;;;19.10;38.50;;;;;;6160990;23;20174;-88
2022/05/17 07:58:28;;;;;;;0.63;0.63;;;19.10;38.50;;;;;;6101911;23;20156;-92
2022/05/17 08:01:04;;;;;;;4.82;0.70;;;19.10;38.60;;;;;;6100089;23;20171;-90
2022/05/17 08:03:40;;;;;;;1.75;0.70;;;19.10;38.90;;;;;;6076030;23;20228;-88
2022/05/17 08:06:13;;;;;;;1.80;0.50;;;19.10;39.00;;;;;;6055856;23;20167;-89
2022/05/17 08:08:44;;;;;;;2.67;0.60;;;19.00;39.00;;;;;;6078255;23;20145;-88
2022/05/17 08:11:10;;;;;;;2.53;0.75;;;19.10;38.90;;;;;;6134289;23;20697;-91
2022/05/17 08:13:36;;;;;;;2.72;0.70;;;19.10;38.80;;;;;;6166370;23;20131;-88
2022/05/17 08:16:04;;;;;;;7.05;0.77;;;19.00;38.80;;;;;;6117412;23;20202;-89
2022/05/17 08:18:31;;;;;;;0.90;0.47;;;19.00;38.90;;;;;;6140887;23;20296;-86
2022/05/17 08:20:57;;;;;;;2.00;0.90;;;19.00;38.90;;;;;;6113747;23;20142;-88
2022/05/17 08:23:23;;;;;;;3.00;0.88;;;19.10;38.70;;;;;;6135911;23;20606;-89
2022/05/17 08:28:36;;;;;;;2.10;0.80;;;19.00;38.90;;;;;;6195119;23;20165;-89
2022/05/17 08:31:02;;;;;;;1.25;0.82;;;19.00;38.90;;;;;;6147016;23;20181;-90
2022/05/17 08:33:44;;;;;;;;;;;;;;;;;;;;;
2022/05/17 08:36:11;;;;;;;3.40;0.63;;;19.10;38.80;;;;;;6138179;23;20258;-89
2022/05/17 08:38:42;;;;;;;3.03;0.80;;;19.00;38.60;;;;;;6166383;23;20159;-86
2022/05/17 08:41:37;;;;;;;1.95;0.65;;;19.10;38.70;;;;;;6159802;23;20159;-88
2022/05/17 08:44:13;;;;;;;2.25;0.73;;;19.10;38.80;;;;;;6159834;23;20178;-87
2022/05/17 08:47:06;;;;;;;4.32;0.75;;;19.10;38.70;;;;;;6135358;23;20154;-86
2022/05/17 08:49:38;;;;;;;2.03;0.68;;;19.10;39.00;;;;;;6186301;23;20194;-86
2022/05/17 08:52:11;;;;;;;2.33;0.65;;;19.10;38.70;;;;;;6159124;23;20163;-85
2022/05/17 08:54:49;;;;;;;3.50;0.60;;;19.10;38.60;;;;;;6160983;23;20151;-88
2022/05/17 08:57:26;;;;;;;2.28;0.80;;;19.10;38.70;;;;;;6160420;23;20602;-84
2022/05/17 08:59:52;;;;;;;2.50;0.60;;;19.10;38.40;;;;;;6159199;23;20242;-87
2022/05/17 09:02:22;;;;;;;1.73;0.70;;;19.10;38.50;;;;;;6159617;23;20676;-88
2022/05/17 09:05:01;;;;;;;1.52;0.70;;;19.10;38.50;;;;;;6194986;23;20181;-86
2022/05/17 09:07:28;;;;;;;1.77;0.80;;;19.20;38.60;;;;;;6217598;23;20434;-87
2022/05/17 09:10:08;;;;;;;0.52;0.52;;;19.20;38.70;;;;;;6214992;23;20160;-86
2022/05/17 09:12:40;;;;;;;2.28;0.70;;;19.20;38.60;;;;;;6164848;23;20177;-85
2022/05/17 09:15:06;;;;;;;1.20;0.60;;;19.20;38.70;;;;;;6166563;23;20164;-85
2022/05/17 09:17:34;;;;;;;1.08;0.75;;;19.20;38.50;;;;;;6191475;23;20130;-87
2022/05/17 09:20:03;;;;;;;1.65;0.57;;;19.20;38.40;;;;;;6191796;23;20154;-85
2022/05/17 09:22:29;;;;;;;1.85;0.63;;;19.20;38.30;;;;;;6117811;23;20154;-86
2022/05/17 09:24:59;;;;;;;0.70;0.70;;;19.20;38.40;;;;;;6167985;23;20150;-84
2022/05/17 09:27:30;;;;;;;2.35;0.80;;;19.20;38.30;;;;;;6194709;23;20130;-84
2022/05/17 09:30:16;;;;;;;2.58;0.70;;;19.20;38.30;;;;;;6195876;23;20593;-86
2022/05/17 09:32:44;;;;;;;2.05;0.63;;;19.20;38.30;;;;;;6105759;23;20192;-84
2022/05/17 09:35:15;;;;;;;1.65;0.70;;;19.10;38.10;;;;;;6192608;23;20154;-85
2022/05/17 09:37:49;;;;;;;2.67;0.60;;;19.30;39.00;;;;;;6172366;23;20142;-85
2022/05/17 09:40:24;;;;;;;1.83;0.80;;;19.20;38.60;;;;;;6119281;23;20605;-85
2022/05/17 09:43:01;;;;;;;1.38;0.70;;;19.20;38.40;;;;;;6166442;23;20461;-86
2022/05/17 09:45:50;;;;;;;0.93;0.82;;;19.20;38.40;;;;;;6217099;23;20141;-85
2022/05/17 09:52:32;;;;;;;1.55;0.82;;;19.30;38.30;;;;;;6217033;23;20190;-88
2022/05/17 09:54:31;;;;;;;2.75;0.88;;;19.30;38.30;;;;;;6195372;23;20248;-88
2022/05/17 09:57:21;;;;;;;3.75;0.80;;;19.30;37.90;;;;;;6167666;23;20142;-85
2022/05/17 09:59:48;;;;;;;3.08;0.80;;;19.40;38.00;;;;;;6217109;23;20636;-86
2022/05/17 10:02:35;;;;;;;2.25;0.85;;;19.30;38.30;;;;;;6194405;23;20150;-86
2022/05/17 10:05:24;;;;;;;1.63;0.73;;;19.40;37.60;;;;;;6191219;23;20169;-89
2022/05/17 10:07:56;;;;;;;6.15;1.10;;;19.40;37.60;;;;;;6194545;23;20269;-90
2022/05/17 10:10:26;;;;;;;6.30;0.90;;;19.40;37.70;;;;;;6193201;23;20594;-89
2022/05/17 10:12:56;;;;;;;8.73;1.10;;;19.40;37.60;;;;;;6166874;23;20513;-88
2022/05/17 10:15:21;;;;;;;3.97;1.02;;;19.30;37.50;;;;;;6215400;23;20221;-88
2022/05/17 10:17:51;;;;;;;8.10;1.13;;;19.30;37.40;;;;;;6164827;23;20220;-91
2022/05/17 10:20:23;;;;;;;4.72;0.95;;;19.40;37.50;;;;;;6189662;23;20157;-87
2022/05/17 10:23:09;;;;;;;4.82;1.00;;;19.40;37.70;;;;;;6165226;23;20225;-88
2022/05/17 10:25:48;;;;;;;3.55;0.90;;;19.40;37.50;;;;;;6215042;23;20165;-89
2022/05/17 10:28:19;;;;;;;2.95;1.20;;;19.30;37.10;;;;;;6192953;23;20134;-88
2022/05/17 10:30:54;;;;;;;2.90;0.77;;;19.30;37.30;;;;;;6168066;23;20212;-88
2022/05/17 10:33:31;;;;;;;1.70;0.60;;;19.40;37.00;;;;;;6169153;23;20177;-87
2022/05/17 10:36:04;;;;;;;3.53;0.70;;;19.40;37.30;;;;;;6145669;23;20157;-87
2022/05/17 10:38:39;;;;;;;1.33;0.70;;;19.30;37.10;;;;;;6195235;23;20181;-88
2022/05/17 10:41:08;;;;;;;1.38;0.80;;;19.30;37.50;;;;;;6145779;23;20233;-87
2022/05/17 10:43:39;;;;;;;3.47;1.00;;;19.30;37.10;;;;;;6172457;23;20138;-86
2022/05/17 10:46:18;;;;;;;1.77;0.90;;;19.30;37.00;;;;;;6193442;23;20142;-88
2022/05/17 10:48:55;;;;;;;2.78;0.73;;;19.40;36.60;;;;;;6220261;23;20190;-87
2022/05/17 10:51:50;;;;;;;1.08;0.75;;;19.40;36.80;;;;;;6196580;23;20134;-86
2022/05/17 10:54:38;;;;;;;3.38;0.75;;;19.40;36.40;;;;;;6138342;23;20150;-86
2022/05/17 10:57:47;;;;;;;3.17;0.93;;;19.40;36.60;;;;;;6125284;23;20208;-87
2022/05/17 11:00:37;;;;;;;4.43;1.00;;;19.30;36.70;;;;;;6168812;23;20168;-88
2022/05/17 11:03:44;;;;;;;2.55;0.85;;;19.40;36.50;;;;;;6093144;23;20163;-87
2022/05/17 11:06:26;;;;;;;2.80;0.90;;;19.40;36.50;;;;;;6089280;23;20175;-87
2022/05/17 11:09:15;;;;;;;2.05;0.90;;;19.30;36.00;;;;;;6064815;23;20245;-89
2022/05/17 11:12:05;;;;;;;3.05;0.90;;;19.30;36.00;;;;;;6061504;23;20174;-86
2022/05/17 11:14:47;;;;;;;0.70;0.70;;;19.40;36.30;;;;;;6062076;23;20222;-87
2022/05/17 11:17:28;;;;;;;2.13;0.70;;;19.40;36.00;;;;;;6131961;23;20255;-90
2022/05/17 11:20:27;;;;;;;4.88;1.02;;;19.30;36.70;;;;;;6041207;23;20154;-87
2022/05/17 11:24:07;;;;;;;;;;;;;;;;;;;;;
2022/05/17 11:27:08;;;;;;;1.83;1.05;;;19.40;36.30;;;;;;6033700;23;20243;-85
2022/05/17 11:30:02;;;;;;;1.00;0.90;;;19.30;35.80;;;;;;6196506;23;20153;-86
2022/05/17 11:32:30;;;;;;;2.20;0.90;;;19.30;35.70;;;;;;6177808;23;20606;-87
2022/05/17 11:35:05;;;;;;;2.97;1.00;;;19.30;36.40;;;;;;6194026;23;20165;-89
2022/05/17 11:37:42;;;;;;;1.13;0.80;;;19.40;36.40;;;;;;6144991;23;20196;-89
2022/05/17 11:40:36;;;;;;;3.08;1.08;;;19.30;36.60;;;;;;6218088;23;20149;-89
2022/05/17 11:45:56;;;;;;;3.15;0.82;;;19.30;36.10;;;;;;6155519;23;20540;-88
2022/05/17 11:48:25;;;;;;;2.03;0.90;;;19.40;35.70;;;;;;6174892;23;20194;-90
2022/05/17 11:50:51;;;;;;;0.80;0.80;;;19.40;35.90;;;;;;6169217;23;20158;-88
2022/05/17 11:53:40;;;;;;;1.25;0.90;;;19.40;35.50;;;;;;6219734;23;20613;-88
2022/05/17 11:56:37;;;;;;;3.53;1.10;;;19.40;35.60;;;;;;6169793;23;20161;-89
2022/05/17 11:59:26;;;;;;;0.95;0.90;;;19.40;35.60;;;;;;6222637;23;20146;-87
2022/05/17 12:02:06;;;;;;;2.90;0.80;;;19.40;35.30;;;;;;6201661;23;20150;-88
2022/05/17 12:04:42;;;;;;;2.83;1.00;;;19.40;35.40;;;;;;6216619;23;20162;-85
2022/05/17 12:07:28;;;;;;;2.75;0.90;;;19.40;35.30;;;;;;6217216;23;20188;-85
2022/05/17 12:10:15;;;;;;;1.05;0.80;;;19.50;35.20;;;;;;6156636;23;20155;-89
2022/05/17 12:12:59;;;;;;;3.30;0.98;;;19.50;35.00;;;;;;6105337;23;20609;-88
2022/05/17 12:15:41;;;;;;;2.13;0.80;;;19.50;34.90;;;;;;6106716;23;20230;-88
2022/05/17 12:18:25;;;;;;;0.77;0.73;;;19.40;34.80;;;;;;6107821;23;20152;-90
2022/05/17 12:21:12;;;;;;;2.55;1.00;;;19.50;35.00;;;;;;6131064;23;20501;-86
2022/05/17 12:23:56;;;;;;;1.65;1.00;;;19.50;35.10;;;;;;6133100;23;20614;-88
2022/05/17 12:27:03;;;;;;;0.85;0.80;;;19.50;35.10;;;;;;6086505;23;20158;-87
2022/05/17 12:32:18;;;;;;;1.48;0.88;;;19.50;34.90;;;;;;6134547;23;20751;-91
2022/05/17 12:34:51;;;;;;;1.63;0.90;;;19.50;35.00;;;;;;6132257;23;20147;-86
2022/05/17 12:37:26;;;;;;;2.00;1.00;;;19.50;34.90;;;;;;6163608;23;20139;-86
2022/05/17 12:45:26;;;;;;;0.70;0.70;;;19.30;34.90;;;;;;6216905;23;20205;-86
2022/05/17 12:47:53;;;;;;;1.65;0.93;;;19.50;34.80;;;;;;6173544;23;20631;-88
2022/05/17 12:50:25;;;;;;;2.53;0.70;;;19.50;34.60;;;;;;6197676;23;20572;-87
2022/05/17 12:52:56;;;;;;;2.15;0.82;;;19.50;34.40;;;;;;6147749;23;20181;-87
2022/05/17 12:55:25;;;;;;;1.27;0.90;;;19.50;34.50;;;;;;6146581;23;20167;-87
2022/05/17 12:57:52;;;;;;;1.35;0.90;;;19.50;34.40;;;;;;6170510;23;20145;-88
2022/05/17 13:00:25;;;;;;;2.63;1.00;;;19.40;34.70;;;;;;6196149;23;20126;-87
2022/05/17 13:02:58;;;;;;;3.55;0.85;;;19.50;34.60;;;;;;6171776;23;20534;-87
2022/05/17 13:05:33;;;;;;;1.60;0.80;;;19.40;34.20;;;;;;6171913;23;20149;-85
2022/05/17 13:08:04;;;;;;;1.48;1.13;;;19.50;34.20;;;;;;6195881;23;20152;-87
2022/05/17 13:10:32;;;;;;;0.93;0.85;;;19.50;34.50;;;;;;6221119;23;20149;-87
2022/05/17 13:12:59;;;;;;;2.15;0.90;;;19.50;34.40;;;;;;6247941;23;20168;-87
2022/05/17 13:15:25;;;;;;;1.60;0.70;;;19.50;34.40;;;;;;6171521;23;20157;-88
2022/05/17 13:17:55;;;;;;;1.98;1.05;;;19.50;34.30;;;;;;6197240;23;20150;-87
2022/05/17 13:20:25;;;;;;;2.33;1.20;;;19.50;34.30;;;;;;6170713;23;20146;-87
2022/05/17 13:22:54;;;;;;;1.58;0.80;;;19.50;34.20;;;;;;6195670;23;20133;-88
2022/05/17 13:25:22;;;;;;;1.80;0.90;;;19.50;34.30;;;;;;6196038;23;20153;-87
2022/05/17 13:27:49;;;;;;;1.15;0.80;;;19.50;34.40;;;;;;6195590;23;20191;-87
2022/05/17 13:30:27;;;;;;;0.80;0.80;;;19.50;34.50;;;;;;6171198;23;20232;-87
2022/05/17 13:32:57;;;;;;;2.75;0.93;;;19.50;34.20;;;;;;6221252;23;20184;-88
2022/05/17 13:35:26;;;;;;;5.90;0.98;;;19.50;34.40;;;;;;6170916;23;20572;-87